< Typhoon 202019 2020 Season Typhoon 202021 >
Typhoon 202020 (ATSANI)
General InformationTrack Information on Google MapsDetailed Wind InformationForecast History on Google MapsAccess Analytics MapList of All Images || NewsDisaster Info.WeblogTrackbackTyphoon FrontTwiphoonTyphoon Now!Typhoon ImaginationJMA Disaster Info. XMLResourceGoogle EarthGE AnimationAtom FeedGeoJSON
Detalied Best Track (Time Zone = UTC)
Year Month Day Hour Lat. Long. Pressure (hPa) Wind (kt) Class Image Chart
2020 10 30 12 11.5 142.9 1004 0 2 Image Chart
2020 10 30 18 12.5 141.9 1002 0 2 Image Chart
2020 10 31 00 13.3 140.1 1004 0 2 Image Chart
2020 10 31 06 13.9 138.8 1002 0 2 Image Chart
2020 10 31 12 14.5 137.4 1002 0 2 Image Chart
2020 10 31 18 14.9 136.0 1002 0 2 Image Chart
2020 11 1 00 15.6 134.3 1002 0 2 Image Chart
2020 11 1 06 16.0 132.5 1002 0 2 Image Chart
2020 11 1 12 16.6 130.6 1002 0 2 Image Chart
2020 11 1 18 17.9 129.1 1002 0 2 Image Chart
2020 11 2 00 19.2 128.1 1004 0 2 Image Chart
2020 11 2 06 19.6 127.0 1002 0 2 Image Chart
2020 11 2 12 19.6 126.7 1002 0 2 Image Chart
2020 11 2 18 19.8 127.1 1000 35 3 Image Chart
2020 11 3 00 20.1 127.6 998 40 3 Image Chart
2020 11 3 06 20.0 127.9 998 40 3 Image Chart
2020 11 3 12 19.8 128.5 998 40 3 Image Chart
2020 11 3 18 19.7 128.8 998 40 3 Image Chart
2020 11 4 00 19.8 129.2 994 45 3 Image Chart
2020 11 4 06 20.3 129.0 994 45 3 Image Chart
2020 11 4 12 20.2 128.7 992 50 4 Image Chart
2020 11 4 18 20.0 127.7 992 50 4 Image Chart
2020 11 5 00 19.9 126.7 992 50 4 Image Chart
2020 11 5 06 20.1 125.5 992 50 4 Image Chart
2020 11 5 12 20.5 124.2 994 50 4 Image Chart
2020 11 5 18 20.6 123.0 994 50 4 Image Chart
2020 11 6 00 21.1 121.9 996 50 4 Image Chart
2020 11 6 06 21.3 120.9 996 50 4 Image Chart
2020 11 6 12 21.7 120.2 998 50 4 Image Chart
2020 11 6 18 22.3 119.7 1000 45 3 Image Chart
2020 11 7 00 22.6 119.5 1004 35 3 Image Chart
2020 11 7 06 22.7 119.2 1008 0 2 Image Chart
Japan Meteorological Agency Best Track Data | Correction Date : 2021-02-04
< Typhoon 202019 2020 Season Typhoon 202021 >

Help